Roby, Missouri
Current Conditions -  °F | °C
As of 7:58 AM on Sunday 21 Dec 2014 (Local Time) from KTBN Reporting Station
Overcast Overcast  
Wind Chill: 32°   Ceiling: 2500
Heat Index: 38°   Visibility: 10mi
Dew Point: 38°   Wind: 9mph
Humidity: 99%   Direction: 140°SE
Pressure: 30.12"   Gusts: NA
Location:  37.52°N, 92.14°W
Report Text: KTBN 211358Z AUTO 14008KT 10SM OVC025 04/04 A3012 RMK AO2 SLP209 T00360035 $
Loading
Personal Weather Stations






























Interactive Weather Map New forecast layout! Learn more

10-Day Weather Forecast

Advertisements
Track Severe Weather on mobile